createdAt,value
2022-08-07T00:00:40.406Z,17.97
2022-08-07T00:01:44.370Z,17.93
2022-08-07T00:02:44.563Z,17.92
2022-08-07T00:03:40.028Z,17.90
2022-08-07T00:04:39.923Z,17.89
2022-08-07T00:05:39.924Z,17.89
2022-08-07T00:06:45.489Z,17.86
2022-08-07T00:07:41.148Z,17.84
2022-08-07T00:08:44.229Z,17.82
2022-08-07T00:09:39.872Z,17.82
2022-08-07T00:10:47.709Z,17.82
2022-08-07T00:11:48.031Z,17.82
2022-08-07T00:12:57.970Z,17.79
2022-08-07T00:13:40.503Z,17.78
2022-08-07T00:14:39.758Z,17.77
2022-08-07T00:15:46.635Z,17.74
2022-08-07T00:16:39.749Z,17.74
2022-08-07T00:17:39.765Z,17.72
2022-08-07T00:18:39.735Z,17.71
2022-08-07T00:20:01.317Z,17.70
2022-08-07T00:20:39.694Z,17.66
2022-08-07T00:21:57.125Z,17.64
2022-08-07T00:22:39.669Z,17.62
2022-08-07T00:23:40.254Z,17.62
2022-08-07T00:24:39.643Z,17.63
2022-08-07T00:25:41.405Z,17.63
2022-08-07T00:26:49.058Z,17.58
2022-08-07T00:27:52.995Z,17.56
2022-08-07T00:28:45.725Z,17.55
2022-08-07T00:29:39.601Z,17.52
2022-08-07T00:30:39.553Z,17.49
2022-08-07T00:31:41.395Z,17.51
2022-08-07T00:32:39.516Z,17.48
2022-08-07T00:33:39.534Z,17.46
2022-08-07T00:34:39.530Z,17.48
2022-08-07T00:35:39.496Z,17.49
2022-08-07T00:36:43.367Z,17.43
2022-08-07T00:37:47.706Z,17.38
2022-08-07T00:38:39.496Z,17.33
2022-08-07T00:39:45.019Z,17.30
2022-08-07T00:40:40.795Z,17.26
2022-08-07T00:41:45.377Z,17.26
2022-08-07T00:42:39.439Z,17.23
2022-08-07T00:44:00.547Z,17.22
2022-08-07T00:44:41.340Z,17.22
2022-08-07T00:45:39.382Z,17.19
2022-08-07T00:46:39.343Z,17.18
2022-08-07T00:48:09.050Z,17.19
2022-08-07T00:48:42.394Z,17.19
2022-08-07T00:50:20.121Z,17.19
2022-08-07T00:50:51.525Z,17.18
2022-08-07T00:51:56.571Z,17.18
2022-08-07T00:52:39.286Z,17.15
2022-08-07T00:53:50.540Z,17.11
2022-08-07T00:54:40.623Z,17.08
2022-08-07T00:56:00.524Z,17.08
2022-08-07T00:56:39.252Z,17.06
2022-08-07T00:57:55.326Z,17.06
2022-08-07T00:58:39.169Z,17.08
2022-08-07T00:59:39.153Z,17.08
2022-08-07T01:00:39.191Z,17.06
2022-08-07T01:01:44.176Z,17.08
2022-08-07T01:02:39.860Z,17.12
2022-08-07T01:03:56.584Z,17.11
2022-08-07T01:04:43.376Z,17.08
2022-08-07T01:05:39.099Z,17.11
2022-08-07T01:06:39.134Z,17.11
2022-08-07T01:07:39.096Z,17.11
2022-08-07T01:08:43.190Z,17.08
2022-08-07T01:10:06.090Z,17.07
2022-08-07T01:10:39.024Z,17.06
2022-08-07T01:12:23.514Z,17.06
2022-08-07T01:12:39.028Z,17.08
2022-08-07T01:13:38.974Z,17.07
2022-08-07T01:14:39.016Z,17.03
2022-08-07T01:16:04.972Z,17.03
2022-08-07T01:16:38.940Z,17.00
2022-08-07T01:17:40.076Z,16.98
2022-08-07T01:18:38.938Z,16.97
2022-08-07T01:19:41.966Z,16.93
2022-08-07T01:20:43.163Z,16.93
2022-08-07T01:21:38.872Z,16.89
2022-08-07T01:22:41.458Z,16.91
2022-08-07T01:23:41.749Z,16.91
2022-08-07T01:24:38.858Z,16.93
2022-08-07T01:25:55.879Z,16.96
2022-08-07T01:26:38.800Z,16.96
2022-08-07T01:27:41.123Z,16.93
2022-08-07T01:28:38.808Z,16.93
2022-08-07T01:29:38.759Z,16.91
2022-08-07T01:30:38.747Z,16.89
2022-08-07T01:31:42.881Z,16.89
2022-08-07T01:32:38.770Z,16.89
2022-08-07T01:33:52.019Z,16.88
2022-08-07T01:34:38.695Z,16.86
2022-08-07T01:35:53.173Z,16.82
2022-08-07T01:36:40.682Z,16.83
2022-08-07T01:37:38.700Z,16.85
2022-08-07T01:38:38.667Z,16.86
2022-08-07T01:39:40.886Z,16.85
2022-08-07T01:40:38.766Z,16.85
2022-08-07T01:41:38.602Z,16.86
2022-08-07T01:42:57.286Z,16.86
2022-08-07T01:43:38.703Z,16.82
2022-08-07T01:44:38.571Z,16.82
2022-08-07T01:45:40.146Z,16.81
2022-08-07T01:46:38.613Z,16.78
2022-08-07T01:48:18.169Z,16.78
2022-08-07T01:48:38.560Z,16.79
2022-08-07T01:49:38.503Z,16.78
2022-08-07T01:50:40.393Z,16.75
2022-08-07T01:52:03.869Z,16.76
2022-08-07T01:52:38.508Z,16.75
2022-08-07T01:54:09.151Z,16.76
2022-08-07T01:54:38.489Z,16.76
2022-08-07T01:55:38.426Z,16.73
2022-08-07T01:56:38.727Z,16.73
2022-08-07T01:58:05.401Z,16.70
2022-08-07T01:58:41.087Z,16.70
2022-08-07T01:59:38.405Z,16.68
2022-08-07T02:00:45.363Z,16.68
2022-08-07T02:02:01.955Z,16.67
2022-08-07T02:03:12.125Z,16.67
2022-08-07T02:03:48.584Z,16.66
2022-08-07T02:04:38.316Z,16.67
2022-08-07T02:05:48.295Z,16.64
2022-08-07T02:06:38.367Z,16.61
2022-08-07T02:07:50.446Z,16.61
2022-08-07T02:08:38.271Z,16.61
2022-08-07T02:09:54.728Z,16.58
2022-08-07T02:10:38.265Z,16.57
2022-08-07T02:12:03.015Z,16.56
2022-08-07T02:12:38.262Z,16.53
2022-08-07T02:13:57.393Z,16.53
2022-08-07T02:14:40.931Z,16.52
2022-08-07T02:15:38.200Z,16.50
2022-08-07T02:16:38.158Z,16.50
2022-08-07T02:17:38.124Z,16.52
2022-08-07T02:18:38.133Z,16.52
2022-08-07T02:20:04.273Z,16.53
2022-08-07T02:20:38.137Z,16.52
2022-08-07T02:21:56.509Z,16.52
2022-08-07T02:22:38.416Z,16.49
2022-08-07T02:23:38.050Z,16.49
2022-08-07T02:24:38.048Z,16.46
2022-08-07T02:26:31.114Z,16.46
2022-08-07T02:26:38.874Z,16.45
2022-08-07T02:27:41.207Z,16.45
2022-08-07T02:28:37.995Z,16.42
2022-08-07T02:29:48.531Z,16.42
2022-08-07T02:30:37.979Z,16.38
2022-08-07T02:31:37.926Z,16.34
2022-08-07T02:32:39.537Z,16.33
2022-08-07T02:34:04.141Z,16.33
2022-08-07T02:34:37.941Z,16.33
2022-08-07T02:36:30.033Z,16.31
2022-08-07T02:36:37.889Z,16.27
2022-08-07T02:37:37.893Z,16.23
2022-08-07T02:38:37.861Z,16.14
2022-08-07T02:39:43.979Z,16.11
2022-08-07T02:40:37.920Z,16.09
2022-08-07T02:41:37.915Z,16.14
2022-08-07T02:42:37.804Z,16.14
2022-08-07T02:43:39.596Z,16.11
2022-08-07T02:44:37.766Z,16.09
2022-08-07T02:45:59.325Z,16.05
2022-08-07T02:46:37.795Z,16.02
2022-08-07T02:47:45.264Z,15.97
2022-08-07T02:48:37.719Z,15.94
2022-08-07T02:49:59.007Z,15.92
2022-08-07T02:50:37.717Z,15.90
2022-08-07T02:51:49.734Z,15.87
2022-08-07T02:52:37.705Z,15.89
2022-08-07T02:53:38.535Z,15.86
2022-08-07T02:54:37.636Z,15.82
2022-08-07T02:56:03.681Z,15.75
2022-08-07T02:56:37.668Z,15.71
2022-08-07T02:57:37.646Z,15.71
2022-08-07T02:58:39.895Z,15.72
2022-08-07T02:59:37.627Z,15.75
2022-08-07T03:00:39.072Z,15.76
2022-08-07T03:01:40.072Z,15.76
2022-08-07T03:02:37.563Z,15.78
2022-08-07T03:03:49.202Z,15.78
2022-08-07T03:04:37.506Z,15.80
2022-08-07T03:05:37.799Z,15.82
2022-08-07T03:06:37.508Z,15.80
2022-08-07T03:08:04.633Z,15.84
2022-08-07T03:08:37.481Z,15.86
2022-08-07T03:09:43.559Z,15.87
2022-08-07T03:10:41.105Z,15.89
2022-08-07T03:11:38.497Z,15.87
2022-08-07T03:12:37.440Z,15.84
2022-08-07T03:13:39.200Z,15.82
2022-08-07T03:14:37.375Z,15.82
2022-08-07T03:15:56.760Z,15.83
2022-08-07T03:16:38.363Z,15.83
2022-08-07T03:17:52.955Z,15.84
2022-08-07T03:18:37.348Z,15.86
2022-08-07T03:19:37.523Z,15.86
2022-08-07T03:20:37.282Z,15.86
2022-08-07T03:21:37.273Z,15.86
2022-08-07T03:22:37.278Z,15.84
2022-08-07T03:24:21.129Z,15.86
2022-08-07T03:24:37.260Z,15.86
2022-08-07T03:25:41.502Z,15.87
2022-08-07T03:26:50.920Z,15.89
2022-08-07T03:27:58.751Z,15.89
2022-08-07T03:28:39.592Z,15.92
2022-08-07T03:29:37.508Z,15.92
2022-08-07T03:30:37.187Z,15.92
2022-08-07T03:31:42.404Z,15.90
2022-08-07T03:32:37.142Z,15.89
2022-08-07T03:33:40.063Z,15.86
2022-08-07T03:34:39.355Z,15.83
2022-08-07T03:35:43.422Z,15.76
2022-08-07T03:36:37.080Z,15.76
2022-08-07T03:37:37.264Z,15.75
2022-08-07T03:38:37.066Z,15.76
2022-08-07T03:39:45.903Z,15.75
2022-08-07T03:40:37.145Z,15.74
2022-08-07T03:41:42.288Z,15.71
2022-08-07T03:42:37.074Z,15.72
2022-08-07T03:43:36.971Z,15.74
2022-08-07T03:44:36.973Z,15.74
2022-08-07T03:45:39.823Z,15.76
2022-08-07T03:46:36.948Z,15.76
2022-08-07T03:47:45.046Z,15.76
2022-08-07T03:48:45.537Z,15.75
2022-08-07T03:49:36.922Z,15.74
2022-08-07T03:50:36.915Z,15.72
2022-08-07T03:51:47.718Z,15.72
2022-08-07T03:52:36.889Z,15.71
2022-08-07T03:54:05.807Z,15.71
2022-08-07T03:54:54.235Z,15.68
2022-08-07T03:55:58.500Z,15.69
2022-08-07T03:56:37.416Z,15.69
2022-08-07T03:58:35.501Z,15.65
2022-08-07T03:59:13.366Z,15.64
2022-08-07T03:59:36.818Z,15.60
2022-08-07T04:00:37.012Z,15.57
2022-08-07T04:01:36.998Z,15.59
2022-08-07T04:02:36.915Z,15.60
2022-08-07T04:03:38.886Z,15.57
2022-08-07T04:04:36.702Z,15.56
2022-08-07T04:05:40.259Z,15.56
2022-08-07T04:06:38.420Z,15.54
2022-08-07T04:07:42.490Z,15.56
2022-08-07T04:08:36.634Z,15.54
2022-08-07T04:09:45.556Z,15.54
2022-08-07T04:10:38.816Z,15.50
2022-08-07T04:12:26.430Z,15.49
2022-08-07T04:12:36.633Z,15.47
2022-08-07T04:14:10.942Z,15.49
2022-08-07T04:14:43.515Z,15.50
2022-08-07T04:15:36.546Z,15.50
2022-08-07T04:16:36.567Z,15.50
2022-08-07T04:18:32.064Z,15.53
2022-08-07T04:19:03.942Z,15.54
2022-08-07T04:19:52.682Z,15.54
2022-08-07T04:20:36.503Z,15.54
2022-08-07T04:21:36.580Z,15.56
2022-08-07T04:22:36.457Z,15.56
2022-08-07T04:23:43.857Z,15.53
2022-08-07T04:24:39.269Z,15.54
2022-08-07T04:25:39.335Z,15.54
2022-08-07T04:26:36.412Z,15.53
2022-08-07T04:27:39.397Z,15.54
2022-08-07T04:28:36.414Z,15.56
2022-08-07T04:29:40.551Z,15.56
2022-08-07T04:30:55.101Z,15.57
2022-08-07T04:32:02.346Z,15.57
2022-08-07T04:32:36.348Z,15.59
2022-08-07T04:33:36.336Z,15.60
2022-08-07T04:34:39.459Z,15.62
2022-08-07T04:35:36.299Z,15.64
2022-08-07T04:36:36.270Z,15.64
2022-08-07T04:38:00.907Z,15.65
2022-08-07T04:38:36.259Z,15.68
2022-08-07T04:39:36.372Z,15.68
2022-08-07T04:40:36.215Z,15.68
2022-08-07T04:41:36.896Z,15.69
2022-08-07T04:42:36.221Z,15.69
2022-08-07T04:44:13.091Z,15.69
2022-08-07T04:44:36.158Z,15.71
2022-08-07T04:45:57.242Z,15.71
2022-08-07T04:46:42.790Z,15.74
2022-08-07T04:48:00.540Z,15.72
2022-08-07T04:48:36.123Z,15.72
2022-08-07T04:49:37.706Z,15.71
2022-08-07T04:50:36.074Z,15.74
2022-08-07T04:51:36.062Z,15.75
2022-08-07T04:52:36.063Z,15.75
2022-08-07T04:54:01.370Z,15.75
2022-08-07T04:54:36.885Z,15.76
2022-08-07T04:58:12.384Z,15.76
2022-08-07T04:59:15.900Z,15.78
2022-08-07T05:00:09.486Z,15.80
2022-08-07T05:00:30.365Z,15.80
2022-08-07T05:00:44.087Z,15.78
2022-08-07T05:01:43.960Z,15.82
2022-08-07T05:02:43.987Z,15.83
2022-08-07T05:04:07.296Z,15.84
2022-08-07T05:04:47.264Z,15.84
2022-08-07T05:05:53.103Z,15.84
2022-08-07T05:06:51.216Z,15.87
2022-08-07T05:07:45.679Z,15.86
2022-08-07T05:08:59.894Z,15.87
2022-08-07T05:09:46.628Z,15.92
2022-08-07T05:10:43.847Z,15.96
2022-08-07T05:11:57.244Z,16.00
2022-08-07T05:12:51.502Z,16.00
2022-08-07T05:14:56.173Z,16.05
2022-08-07T05:15:07.940Z,16.07
2022-08-07T05:15:43.783Z,16.09
2022-08-07T05:16:45.342Z,16.09
2022-08-07T05:18:00.885Z,16.11
2022-08-07T05:18:43.777Z,16.12
2022-08-07T05:19:44.812Z,16.15
2022-08-07T05:20:43.698Z,16.17
2022-08-07T05:21:59.393Z,16.20
2022-08-07T05:22:43.706Z,16.21
2022-08-07T05:23:43.659Z,16.25
2022-08-07T05:24:43.687Z,16.25
2022-08-07T05:26:11.773Z,16.27
2022-08-07T05:26:46.225Z,16.30
2022-08-07T05:28:02.793Z,16.31
2022-08-07T05:28:48.529Z,16.34
2022-08-07T05:29:51.193Z,16.38
2022-08-07T05:30:43.575Z,16.41
2022-08-07T05:31:51.166Z,16.41
2022-08-07T05:32:43.569Z,16.43
2022-08-07T05:34:01.084Z,16.48
2022-08-07T05:34:43.528Z,16.56
2022-08-07T05:35:43.505Z,16.60
2022-08-07T05:36:43.509Z,16.64
2022-08-07T05:37:43.472Z,16.67
2022-08-07T05:39:00.561Z,16.68
2022-08-07T05:40:13.990Z,16.73
2022-08-07T05:40:51.623Z,16.73
2022-08-07T05:42:02.449Z,16.76
2022-08-07T05:42:43.405Z,16.78
2022-08-07T05:44:08.473Z,16.79
2022-08-07T05:44:52.769Z,16.81
2022-08-07T05:45:47.425Z,16.82
2022-08-07T05:46:43.445Z,16.83
2022-08-07T05:48:01.100Z,16.88
2022-08-07T05:48:58.139Z,16.91
2022-08-07T05:49:43.360Z,16.93
2022-08-07T05:50:43.414Z,16.96
2022-08-07T05:51:43.326Z,16.96
2022-08-07T05:52:43.290Z,16.94
2022-08-07T05:54:13.456Z,16.97
2022-08-07T05:54:53.890Z,16.98
2022-08-07T05:56:03.636Z,17.01
2022-08-07T05:56:43.232Z,17.00
2022-08-07T05:57:44.904Z,17.00
2022-08-07T05:58:49.246Z,17.00
2022-08-07T05:59:57.231Z,17.00
2022-08-07T06:00:43.412Z,17.01
2022-08-07T06:01:43.194Z,17.03
2022-08-07T06:02:43.168Z,17.07
2022-08-07T06:03:53.222Z,17.12
2022-08-07T06:04:43.145Z,17.21
2022-08-07T06:05:48.842Z,17.23
2022-08-07T06:06:46.322Z,17.26
2022-08-07T06:08:29.961Z,17.30
2022-08-07T06:08:43.237Z,17.25
2022-08-07T06:10:03.875Z,17.22
2022-08-07T06:10:43.052Z,17.23
2022-08-07T06:11:43.021Z,17.25
2022-08-07T06:12:43.047Z,17.28
2022-08-07T06:14:11.417Z,17.36
2022-08-07T06:14:42.993Z,17.41
2022-08-07T06:15:43.011Z,17.41
2022-08-07T06:16:42.993Z,17.40
2022-08-07T06:17:42.925Z,17.40
2022-08-07T06:18:43.300Z,17.41
2022-08-07T06:19:52.087Z,17.43
2022-08-07T06:20:50.228Z,17.44
2022-08-07T06:22:23.899Z,17.49
2022-08-07T06:23:01.866Z,17.54
2022-08-07T06:24:36.931Z,17.58
2022-08-07T06:24:57.837Z,17.54
2022-08-07T06:25:54.313Z,17.51
2022-08-07T06:26:42.845Z,17.55
2022-08-07T06:28:00.679Z,17.54
2022-08-07T06:28:42.804Z,17.54
2022-08-07T06:29:43.368Z,17.58
2022-08-07T06:30:46.027Z,17.70
2022-08-07T06:31:49.918Z,17.77
2022-08-07T06:32:42.744Z,17.77
2022-08-07T06:33:42.726Z,17.78
2022-08-07T06:34:45.206Z,17.77
2022-08-07T06:35:45.497Z,17.70
2022-08-07T06:36:42.723Z,17.66
2022-08-07T06:37:44.211Z,17.72
2022-08-07T06:38:51.202Z,17.75
2022-08-07T06:40:18.023Z,17.84
2022-08-07T06:40:42.644Z,17.86
2022-08-07T06:42:00.640Z,17.84
2022-08-07T06:42:42.620Z,17.89
2022-08-07T06:43:46.372Z,17.95
2022-08-07T06:44:42.624Z,18.03
2022-08-07T06:45:44.429Z,18.08
2022-08-07T06:46:42.574Z,18.05
2022-08-07T06:47:57.543Z,18.00
2022-08-07T06:48:44.603Z,18.02
2022-08-07T06:49:51.807Z,18.03
2022-08-07T06:50:43.403Z,18.08
2022-08-07T06:51:49.661Z,18.15
2022-08-07T06:52:42.506Z,18.20
2022-08-07T06:55:27.528Z,18.29
2022-08-07T06:55:53.628Z,18.32
2022-08-07T06:56:07.465Z,18.32
2022-08-07T06:56:48.663Z,18.30
2022-08-07T06:57:48.392Z,18.30
2022-08-07T07:00:14.657Z,18.30
2022-08-07T07:00:22.753Z,18.36
2022-08-07T07:00:45.350Z,18.45
2022-08-07T07:01:50.705Z,18.52
2022-08-07T07:02:53.741Z,18.58
2022-08-07T07:03:49.894Z,18.60
2022-08-07T07:04:54.731Z,18.62
2022-08-07T07:06:04.188Z,18.60
2022-08-07T07:06:57.200Z,18.62
2022-08-07T07:08:00.331Z,18.58
2022-08-07T07:08:46.789Z,18.63
2022-08-07T07:09:45.266Z,18.67
2022-08-07T07:10:47.414Z,18.72
2022-08-07T07:12:09.932Z,18.72
2022-08-07T07:12:48.537Z,18.73
2022-08-07T07:13:58.760Z,18.70
2022-08-07T07:14:45.175Z,18.73
2022-08-07T07:15:45.744Z,18.85
2022-08-07T07:16:51.089Z,18.87
2022-08-07T07:17:45.190Z,18.91
2022-08-07T07:18:48.026Z,19.04
2022-08-07T07:19:57.688Z,19.04
2022-08-07T07:20:45.124Z,19.06
2022-08-07T07:22:11.777Z,19.11
2022-08-07T07:24:06.410Z,19.19
2022-08-07T07:24:16.617Z,19.18
2022-08-07T07:24:48.431Z,19.22
2022-08-07T07:26:35.896Z,19.32
2022-08-07T07:26:51.792Z,19.32
2022-08-07T07:28:01.921Z,19.36
2022-08-07T07:29:23.664Z,19.32
2022-08-07T07:30:08.833Z,19.28
2022-08-07T07:30:44.997Z,19.22
2022-08-07T07:31:46.610Z,19.26
2022-08-07T07:32:44.960Z,19.32
2022-08-07T07:33:44.927Z,19.46
2022-08-07T07:34:44.907Z,19.56
2022-08-07T07:36:04.605Z,19.69
2022-08-07T07:36:47.662Z,19.62
2022-08-07T07:37:52.651Z,19.66
2022-08-07T07:38:46.062Z,19.71
2022-08-07T07:39:52.339Z,19.84
2022-08-07T07:40:44.831Z,19.95
2022-08-07T07:42:02.289Z,20.08
2022-08-07T07:42:51.076Z,20.16
2022-08-07T07:44:14.654Z,20.21
2022-08-07T07:44:44.811Z,20.29
2022-08-07T07:46:40.330Z,20.39
2022-08-07T07:47:13.981Z,20.47
2022-08-07T07:47:52.863Z,20.42
2022-08-07T07:48:45.534Z,20.33
2022-08-07T07:50:36.671Z,20.28
2022-08-07T07:50:44.691Z,20.29
2022-08-07T07:51:57.645Z,20.38
2022-08-07T07:52:44.662Z,20.47
2022-08-07T07:53:52.168Z,20.48
2022-08-07T07:54:51.422Z,20.48
2022-08-07T07:55:45.551Z,20.43
2022-08-07T07:56:44.613Z,20.43
2022-08-07T07:57:52.606Z,20.62
2022-08-07T07:58:44.624Z,20.82
2022-08-07T07:59:52.766Z,20.87
2022-08-07T08:00:47.791Z,20.82
2022-08-07T08:02:03.732Z,20.91
2022-08-07T08:03:05.019Z,20.94
2022-08-07T08:04:09.721Z,21.04
2022-08-07T08:04:44.622Z,21.06
2022-08-07T08:05:55.184Z,21.13
2022-08-07T08:06:50.779Z,21.22
2022-08-07T08:07:59.573Z,21.34
2022-08-07T08:08:44.477Z,21.47
2022-08-07T08:09:52.032Z,21.56
2022-08-07T08:10:44.476Z,21.64
2022-08-07T08:11:47.212Z,21.65
2022-08-07T08:12:59.266Z,21.56
2022-08-07T08:13:54.364Z,21.59
2022-08-07T08:14:44.400Z,21.61
2022-08-07T08:15:59.133Z,21.61
2022-08-07T08:16:50.272Z,21.67
2022-08-07T08:17:57.990Z,21.71
2022-08-07T08:18:45.140Z,21.79
2022-08-07T08:20:19.715Z,21.80
2022-08-07T08:20:44.325Z,21.82
2022-08-07T08:21:55.994Z,21.88
2022-08-07T08:22:54.126Z,21.99
2022-08-07T08:23:44.292Z,22.07
2022-08-07T08:24:45.490Z,22.15
2022-08-07T08:25:49.239Z,22.22
2022-08-07T08:26:44.197Z,22.28
2022-08-07T08:27:57.206Z,22.39
2022-08-07T08:28:45.112Z,22.35
2022-08-07T08:29:54.561Z,22.31
2022-08-07T08:30:51.463Z,22.31
2022-08-07T08:32:16.944Z,22.28
2022-08-07T08:32:48.669Z,22.27
2022-08-07T08:33:49.077Z,22.30
2022-08-07T08:34:44.980Z,22.36
2022-08-07T08:35:49.931Z,22.43
2022-08-07T08:36:46.301Z,22.57
2022-08-07T08:38:01.418Z,22.73
2022-08-07T08:38:44.632Z,22.90
2022-08-07T08:39:55.240Z,22.94
2022-08-07T08:40:47.355Z,23.00
2022-08-07T08:41:58.667Z,22.94
2022-08-07T08:42:44.003Z,22.95
2022-08-07T08:43:56.297Z,22.94
2022-08-07T08:44:45.685Z,22.95
2022-08-07T08:45:59.519Z,22.98
2022-08-07T08:46:44.938Z,23.02
2022-08-07T08:47:51.868Z,23.10
2022-08-07T08:48:43.967Z,23.13
2022-08-07T08:49:46.493Z,23.23
2022-08-07T08:50:43.911Z,23.27
2022-08-07T08:52:13.074Z,23.32
2022-08-07T08:52:53.705Z,23.46
2022-08-07T08:53:43.879Z,23.66
2022-08-07T08:54:43.873Z,23.76
2022-08-07T08:55:55.378Z,23.75
2022-08-07T08:56:47.265Z,23.76
2022-08-07T08:57:43.799Z,23.72
2022-08-07T08:58:43.781Z,23.61
2022-08-07T08:59:48.062Z,23.65
2022-08-07T09:00:48.603Z,23.70
2022-08-07T09:01:46.565Z,23.73
2022-08-07T09:02:43.816Z,23.69
2022-08-07T09:03:49.448Z,23.78
2022-08-07T09:04:43.754Z,23.88
2022-08-07T09:05:43.704Z,23.93
2022-08-07T09:06:48.032Z,24.02
2022-08-07T09:07:46.137Z,23.98
2022-08-07T09:08:43.675Z,24.13
2022-08-07T09:09:43.621Z,24.24
2022-08-07T09:10:44.365Z,24.27
2022-08-07T09:11:53.350Z,24.21
2022-08-07T09:12:53.034Z,24.22
2022-08-07T09:13:43.668Z,24.42
2022-08-07T09:14:50.683Z,24.55
2022-08-07T09:16:20.465Z,24.45
2022-08-07T09:16:43.668Z,24.42
2022-08-07T09:17:59.439Z,24.34
2022-08-07T09:18:52.885Z,24.43
2022-08-07T09:19:53.691Z,24.39
2022-08-07T09:20:43.531Z,24.53
2022-08-07T09:22:09.965Z,24.69
2022-08-07T09:24:32.198Z,24.87
2022-08-07T09:25:11.853Z,25.03
2022-08-07T09:25:20.108Z,25.13
2022-08-07T09:26:08.985Z,25.02
2022-08-07T09:27:11.801Z,24.87
2022-08-07T09:30:01.441Z,24.87
2022-08-07T09:30:13.967Z,24.90
2022-08-07T09:30:20.750Z,24.90
2022-08-07T09:31:18.873Z,25.05
2022-08-07T09:32:18.985Z,25.15
2022-08-07T09:33:40.722Z,25.20
2022-08-07T09:34:18.782Z,25.24
2022-08-07T09:36:04.463Z,25.20
2022-08-07T09:36:18.776Z,25.15
2022-08-07T09:37:18.752Z,25.18
2022-08-07T09:38:18.743Z,25.18
2022-08-07T09:39:53.000Z,25.25
2022-08-07T09:40:18.777Z,25.46
2022-08-07T09:41:18.679Z,25.51
2022-08-07T09:42:23.132Z,25.42
2022-08-07T09:43:18.751Z,25.25
2022-08-07T09:44:19.460Z,25.13
2022-08-07T09:47:20.077Z,25.20
2022-08-07T09:47:58.880Z,25.25
2022-08-07T09:48:12.141Z,25.45
2022-08-07T09:48:55.934Z,25.69
2022-08-07T09:50:18.962Z,25.82
2022-08-07T09:50:42.231Z,25.85
2022-08-07T09:52:15.719Z,25.95
2022-08-07T09:52:42.227Z,26.05
2022-08-07T09:53:47.945Z,26.13
2022-08-07T09:54:42.234Z,26.30
2022-08-07T09:56:03.326Z,26.44
2022-08-07T09:56:42.170Z,26.51
2022-08-07T09:57:46.631Z,26.54
2022-08-07T09:58:42.546Z,26.37
2022-08-07T09:59:46.421Z,25.95
2022-08-07T10:00:42.144Z,25.79
2022-08-07T10:01:51.303Z,25.72
2022-08-07T10:02:54.983Z,25.33
2022-08-07T10:04:03.875Z,25.33
2022-08-07T10:04:47.553Z,25.54
2022-08-07T10:05:59.176Z,25.80
2022-08-07T10:06:42.056Z,26.07
2022-08-07T10:07:53.119Z,26.44
2022-08-07T10:08:41.996Z,26.81
2022-08-07T10:09:59.292Z,26.95
2022-08-07T10:11:16.963Z,27.10
2022-08-07T10:12:15.428Z,26.97
2022-08-07T10:12:41.930Z,26.80
2022-08-07T10:14:00.280Z,26.55
2022-08-07T10:14:41.912Z,26.55
2022-08-07T10:15:44.303Z,26.57
2022-08-07T10:16:41.920Z,26.52
2022-08-07T10:18:00.769Z,26.48
2022-08-07T10:18:42.382Z,26.10
2022-08-07T10:19:41.923Z,26.07
2022-08-07T10:20:41.822Z,26.07
2022-08-07T10:21:51.132Z,25.79
2022-08-07T10:22:43.046Z,25.77
2022-08-07T10:24:05.082Z,25.85
2022-08-07T10:24:41.790Z,25.88
2022-08-07T10:25:43.112Z,25.90
2022-08-07T10:26:41.771Z,26.05
2022-08-07T10:27:47.098Z,26.13
2022-08-07T10:28:41.714Z,26.05
2022-08-07T10:29:45.528Z,26.13
2022-08-07T10:30:41.688Z,26.32
2022-08-07T10:31:41.714Z,26.43
2022-08-07T10:32:53.834Z,26.57
2022-08-07T10:34:05.556Z,26.72
2022-08-07T10:34:41.650Z,26.89
2022-08-07T10:35:56.772Z,26.92
2022-08-07T10:36:41.644Z,27.02
2022-08-07T10:38:00.559Z,27.09
2022-08-07T10:38:48.278Z,27.18
2022-08-07T10:40:03.551Z,26.94
2022-08-07T10:40:41.560Z,26.62
2022-08-07T10:41:46.848Z,26.45
2022-08-07T10:42:41.527Z,26.54
2022-08-07T10:43:41.538Z,26.57
2022-08-07T10:44:45.262Z,26.60
2022-08-07T10:45:45.033Z,26.66
2022-08-07T10:46:41.471Z,26.67
2022-08-07T10:47:52.753Z,26.73
2022-08-07T10:48:41.441Z,26.84
2022-08-07T10:49:49.197Z,26.63
2022-08-07T10:50:41.438Z,26.45
2022-08-07T10:52:01.838Z,26.47
2022-08-07T10:52:42.745Z,26.44
2022-08-07T10:53:44.210Z,26.63
2022-08-07T10:54:41.393Z,26.73
2022-08-07T10:55:41.380Z,26.82
2022-08-07T10:56:41.340Z,26.85
2022-08-07T10:57:41.322Z,26.82
2022-08-07T10:58:41.353Z,26.43
2022-08-07T10:59:44.093Z,26.39
2022-08-07T11:00:43.307Z,26.69
2022-08-07T11:01:51.988Z,27.04
2022-08-07T11:02:41.389Z,27.14
2022-08-07T11:03:55.032Z,27.06
2022-08-07T11:04:41.259Z,27.02
2022-08-07T11:05:50.594Z,27.04
2022-08-07T11:06:41.230Z,27.10
2022-08-07T11:07:58.475Z,26.99
2022-08-07T11:08:41.252Z,26.95
2022-08-07T11:10:07.444Z,26.94
2022-08-07T11:10:41.197Z,27.03
2022-08-07T11:11:41.175Z,27.04
2022-08-07T11:12:41.120Z,26.97
2022-08-07T11:14:44.468Z,26.77
2022-08-07T11:15:01.810Z,26.76
2022-08-07T11:15:41.112Z,26.73
2022-08-07T11:16:41.114Z,26.77
2022-08-07T11:17:43.077Z,26.72
2022-08-07T11:18:41.181Z,26.75
2022-08-07T11:19:41.101Z,26.82
2022-08-07T11:20:41.056Z,26.89
2022-08-07T11:21:43.063Z,27.00
2022-08-07T11:22:46.016Z,27.09
2022-08-07T11:23:41.034Z,27.04
2022-08-07T11:24:45.566Z,26.97
2022-08-07T11:25:47.794Z,26.95
2022-08-07T11:26:43.421Z,27.04
2022-08-07T11:28:02.980Z,26.82
2022-08-07T11:28:40.933Z,26.75
2022-08-07T11:29:47.309Z,26.73
2022-08-07T11:30:42.192Z,26.75
2022-08-07T11:31:40.919Z,26.75
2022-08-07T11:32:40.874Z,26.84
2022-08-07T11:33:54.288Z,27.03
2022-08-07T11:34:42.527Z,27.13
2022-08-07T11:36:00.352Z,27.29
2022-08-07T11:36:40.854Z,27.19
2022-08-07T11:38:09.912Z,26.99
2022-08-07T11:38:40.807Z,26.99
2022-08-07T11:40:00.303Z,27.04
2022-08-07T11:40:40.807Z,27.19
2022-08-07T11:42:02.487Z,27.32
2022-08-07T11:42:40.748Z,27.44
2022-08-07T11:43:54.690Z,27.29
2022-08-07T11:44:52.147Z,27.21
2022-08-07T11:45:40.762Z,27.28
2022-08-07T11:46:40.719Z,27.50
2022-08-07T11:47:53.578Z,27.60
2022-08-07T11:48:40.679Z,27.62
2022-08-07T11:50:25.236Z,27.67
2022-08-07T11:50:44.245Z,27.67
2022-08-07T11:51:45.089Z,27.51
2022-08-07T11:52:40.705Z,27.50
2022-08-07T11:53:57.002Z,27.44
2022-08-07T11:54:40.606Z,27.04
2022-08-07T11:56:24.861Z,26.75
2022-08-07T11:56:40.556Z,26.75
2022-08-07T11:57:59.335Z,26.89
2022-08-07T11:58:40.550Z,27.06
2022-08-07T12:00:10.291Z,27.21
2022-08-07T12:00:40.565Z,27.44
2022-08-07T12:01:59.217Z,27.57
2022-08-07T12:02:40.530Z,27.57
2022-08-07T12:03:45.063Z,27.34
2022-08-07T12:04:40.481Z,27.27
2022-08-07T12:05:47.610Z,27.34
2022-08-07T12:06:51.736Z,27.49
2022-08-07T12:07:40.669Z,27.60
2022-08-07T12:08:40.405Z,27.78
2022-08-07T12:09:40.396Z,27.90
2022-08-07T12:10:41.747Z,27.90
2022-08-07T12:11:43.289Z,27.81
2022-08-07T12:12:40.384Z,27.82
2022-08-07T12:13:44.907Z,27.81
2022-08-07T12:14:40.365Z,27.82
2022-08-07T12:16:06.041Z,27.67
2022-08-07T12:16:40.351Z,27.70
2022-08-07T12:17:55.973Z,27.81
2022-08-07T12:18:45.545Z,27.82
2022-08-07T12:19:56.384Z,27.84
2022-08-07T12:20:40.269Z,27.82
2022-08-07T12:22:36.335Z,27.77
2022-08-07T12:22:56.510Z,27.75
2022-08-07T12:24:07.542Z,27.78
2022-08-07T12:24:40.470Z,27.92
2022-08-07T12:26:06.097Z,27.92
2022-08-07T12:26:40.655Z,27.59
2022-08-07T12:28:09.794Z,27.54
2022-08-07T12:28:40.155Z,27.31
2022-08-07T12:29:40.328Z,27.22
2022-08-07T12:30:40.291Z,27.25
2022-08-07T12:32:02.174Z,27.25
2022-08-07T12:32:40.137Z,27.31
2022-08-07T12:33:56.194Z,27.43
2022-08-07T12:34:40.057Z,27.55
2022-08-07T12:35:40.055Z,27.75
2022-08-07T12:36:40.035Z,27.87
2022-08-07T12:38:11.482Z,27.97
2022-08-07T12:38:42.964Z,28.14
2022-08-07T12:39:42.969Z,28.27
2022-08-07T12:40:48.806Z,28.40
2022-08-07T12:41:49.135Z,28.06
2022-08-07T12:42:40.012Z,27.85
2022-08-07T12:44:04.419Z,27.94
2022-08-07T12:44:39.939Z,28.07
2022-08-07T12:45:39.934Z,28.11
2022-08-07T12:46:39.948Z,28.07
2022-08-07T12:47:40.642Z,27.79
2022-08-07T12:48:41.244Z,27.63
2022-08-07T12:49:51.321Z,27.66
2022-08-07T12:50:48.861Z,27.79
2022-08-07T12:51:51.291Z,27.82
2022-08-07T12:52:39.885Z,27.63
2022-08-07T12:54:03.336Z,27.63
2022-08-07T12:54:42.415Z,27.57